Wagoner, OK (74477)

5:27 PM CST on December 17, 2014 (GMT -0600)
Muskogee River Bend | Change Station
CLOSE
Current Station
Personal Weather Station
Location: Muskogee, OK
Elevation: 543 ft
Nearby Weather Stations

Elev 543 ft 35.79 °N, 95.32 °W | Updated 5 seconds ago

Rain
Rain
36.3 °F
Feels Like 36 °F
N
0.0
Wind Variable Wind from North
Gusts 0.0 mph

Today
High -- | Low -- °F
--% Chance of Precip.
Yesterday
High -- | Low -- °F
Precip. -- in
7:25 AM 5:09 PM
Waning Crescent, 19% visible
Pressure 30.21 in
Visibility 2.0 miles
Clouds Overcast 1000 ft
Windchill 36 °F
Dew Point 35 °F
Humidity 95%
Rainfall 0.36 in
Snow Depth Not available.
UV 0 out of 12
Pollen 2.90 out of 12
Air Quality Not available.
Flu Activity Not available.
METAR KTQH 172315Z AUTO 00000KT 2SM -SN OVC010 01/00 A3021 RMK AO2 P0008

More Conditions Fewer Conditions

Pressure 30.21 in
Visibility 2.0 miles
Clouds Overcast 1000 ft
Windchill 36 °F
Dew Point 35 °F
Humidity 95%
Rainfall 0.36 in
Snow Depth Not available.
UV 0 out of 12
Pollen 2.90 out of 12
Air Quality Not available.
Flu Activity Not available.
METAR KTQH 172315Z AUTO 00000KT 2SM -SN OVC010 01/00 A3021 RMK AO2 P0008

More Conditions Fewer Conditions

Nowcast | as of 4:30 PM CST on December 17, 2014

At 4:30 PM...National Weather Service Doppler radars continued to detect widespread light precipitation occurring across eastern Oklahoma and western Arkansas. Most of the precipitation was falling as light rain...however a mix of rain and sleet was still occurring across portions of northwest Arkansas and near the Kansas border. All this activity was moving toward the northeast...around 40 miles per hour. Through 6:00 PM...widespread precipitation will continue for the area. Pockets of a rain and sleet mix will remain possible across the northern portions of the forecast area. Isolated thunderstorms will also be possible...mainly across southeast Oklahoma. Average hourly rainfall of less than one tenth of an inch will remain common...with isolated locally higher amounts near one quarter of an inch possible.

×

10-Day Weather Forecast

Almanac

Astronomy

Dec. 17, 2014 Rise Set
Actual Time
Civil Twilight
Nautical Twilight
Astronomical Twilight
Moon
Length of Visible Light
Length of Day
Tomorrow will be .
, % of the Moon is Illuminated

Today's Extremes

State Highs State Lows

Community

WunderPhotos

Upload Photos

1,778,823 photos uploaded!

WunderBlogs® & News

Nearby

Air Quality

  Air Quality AQ Index Pollutant
Not available.

Snow Depth

Station Depth Elevation

Earthquake Activity

City Distance Mag. Time & Date
Minimum magnitude displayed is 2.5.

Coastal Water Temperatures

Place Temperature

Nearby Weather Stations